sensor_id;sensor_type;location;lat;lon;timestamp;pressure;altitude;pressure_sealevel;temperature;humidity
63351;BME280;64988;51.058;17.040;2023-03-14T00:04:08;98353.19;;;17.30;38.12
63351;BME280;64988;51.058;17.040;2023-03-14T00:09:35;98336.56;;;17.45;38.13
63351;BME280;64988;51.058;17.040;2023-03-14T00:15:04;98360.69;;;17.48;38.07
63351;BME280;64988;51.058;17.040;2023-03-14T00:20:34;98365.13;;;17.16;39.07
63351;BME280;64988;51.058;17.040;2023-03-14T00:26:04;98354.63;;;17.26;38.18
63351;BME280;64988;51.058;17.040;2023-03-14T00:31:33;98347.91;;;17.55;38.30
63351;BME280;64988;51.058;17.040;2023-03-14T00:37:02;98353.97;;;17.77;38.12
63351;BME280;64988;51.058;17.040;2023-03-14T00:42:30;98332.56;;;17.74;37.84
63351;BME280;64988;51.058;17.040;2023-03-14T00:47:58;98329.34;;;17.90;37.54
63351;BME280;64988;51.058;17.040;2023-03-14T00:53:25;98346.13;;;18.00;37.49
63351;BME280;64988;51.058;17.040;2023-03-14T00:58:54;98395.25;;;18.00;37.69
63351;BME280;64988;51.058;17.040;2023-03-14T01:04:23;98394.00;;;18.09;37.62
63351;BME280;64988;51.058;17.040;2023-03-14T01:09:53;98393.13;;;18.15;37.28
63351;BME280;64988;51.058;17.040;2023-03-14T01:15:21;98392.47;;;18.20;35.95
63351;BME280;64988;51.058;17.040;2023-03-14T01:20:48;98367.28;;;18.62;35.18
63351;BME280;64988;51.058;17.040;2023-03-14T01:26:18;98378.72;;;18.84;34.79
63351;BME280;64988;51.058;17.040;2023-03-14T01:31:49;98364.97;;;18.97;34.64
63351;BME280;64988;51.058;17.040;2023-03-14T01:37:17;98328.50;;;18.78;35.07
63351;BME280;64988;51.058;17.040;2023-03-14T01:42:53;98295.22;;;19.13;34.90
63351;BME280;64988;51.058;17.040;2023-03-14T01:48:22;98311.34;;;19.21;35.08
63351;BME280;64988;51.058;17.040;2023-03-14T01:53:51;98303.84;;;18.60;37.30
63351;BME280;64988;51.058;17.040;2023-03-14T01:59:21;98290.34;;;17.90;40.24
63351;BME280;64988;51.058;17.040;2023-03-14T02:04:49;98269.28;;;17.97;39.96
63351;BME280;64988;51.058;17.040;2023-03-14T02:10:23;98238.16;;;17.66;40.86
63351;BME280;64988;51.058;17.040;2023-03-14T02:15:52;98239.13;;;16.95;42.86
63351;BME280;64988;51.058;17.040;2023-03-14T02:21:47;98240.34;;;16.46;44.69
63351;BME280;64988;51.058;17.040;2023-03-14T02:27:21;98216.47;;;16.48;44.35
63351;BME280;64988;51.058;17.040;2023-03-14T02:32:52;98195.09;;;16.52;43.94
63351;BME280;64988;51.058;17.040;2023-03-14T02:43:52;98181.06;;;16.48;43.22
63351;BME280;64988;51.058;17.040;2023-03-14T02:49:20;98182.13;;;16.54;42.70
63351;BME280;64988;51.058;17.040;2023-03-14T02:54:48;98178.34;;;16.28;43.10
63351;BME280;64988;51.058;17.040;2023-03-14T03:00:16;98159.72;;;16.45;42.60
63351;BME280;64988;51.058;17.040;2023-03-14T03:05:48;98135.00;;;16.27;41.93
63351;BME280;64988;51.058;17.040;2023-03-14T03:11:18;98105.69;;;16.09;42.37
63351;BME280;64988;51.058;17.040;2023-03-14T03:16:48;98106.31;;;16.18;41.90
63351;BME280;64988;51.058;17.040;2023-03-14T03:22:16;98115.31;;;16.64;41.41
63351;BME280;64988;51.058;17.040;2023-03-14T03:27:43;98105.03;;;16.53;41.57
63351;BME280;64988;51.058;17.040;2023-03-14T03:33:11;98117.00;;;16.65;40.90
63351;BME280;64988;51.058;17.040;2023-03-14T03:38:42;98116.47;;;17.01;40.21
63351;BME280;64988;51.058;17.040;2023-03-14T03:44:09;98076.94;;;16.72;40.40
63351;BME280;64988;51.058;17.040;2023-03-14T03:49:37;98057.34;;;17.08;39.60
63351;BME280;64988;51.058;17.040;2023-03-14T03:55:08;98088.34;;;17.58;38.75
63351;BME280;64988;51.058;17.040;2023-03-14T04:00:36;98075.13;;;17.55;39.12
63351;BME280;64988;51.058;17.040;2023-03-14T04:06:09;98067.31;;;17.65;38.85
63351;BME280;64988;51.058;17.040;2023-03-14T04:11:38;98070.66;;;17.67;38.90
63351;BME280;64988;51.058;17.040;2023-03-14T04:17:21;98036.66;;;17.70;38.63
63351;BME280;64988;51.058;17.040;2023-03-14T04:22:49;98042.72;;;17.72;38.62
63351;BME280;64988;51.058;17.040;2023-03-14T04:28:17;98018.53;;;17.44;38.87
63351;BME280;64988;51.058;17.040;2023-03-14T04:33:46;98000.41;;;17.88;38.16
63351;BME280;64988;51.058;17.040;2023-03-14T04:39:16;97984.25;;;17.86;38.04
63351;BME280;64988;51.058;17.040;2023-03-14T04:44:51;97999.44;;;18.25;37.63
63351;BME280;64988;51.058;17.040;2023-03-14T04:50:22;98022.72;;;18.27;37.47
63351;BME280;64988;51.058;17.040;2023-03-14T04:55:52;98002.69;;;17.91;37.80
63351;BME280;64988;51.058;17.040;2023-03-14T05:01:21;98032.34;;;18.30;37.16
63351;BME280;64988;51.058;17.040;2023-03-14T05:07:07;98040.31;;;18.56;36.90
63351;BME280;64988;51.058;17.040;2023-03-14T05:13:06;98022.13;;;18.25;37.30
63351;BME280;64988;51.058;17.040;2023-03-14T05:19:00;98006.63;;;17.95;38.65
63351;BME280;64988;51.058;17.040;2023-03-14T05:24:46;97984.94;;;17.50;39.85
63351;BME280;64988;51.058;17.040;2023-03-14T05:30:26;97988.34;;;17.77;39.97
63351;BME280;64988;51.058;17.040;2023-03-14T05:36:22;97992.44;;;17.55;40.21
63351;BME280;64988;51.058;17.040;2023-03-14T05:42:09;97994.44;;;17.72;39.57
63351;BME280;64988;51.058;17.040;2023-03-14T05:47:52;97989.09;;;17.84;38.51
63351;BME280;64988;51.058;17.040;2023-03-14T05:53:42;97988.31;;;18.02;38.49
63351;BME280;64988;51.058;17.040;2023-03-14T05:59:32;97988.97;;;17.97;38.46
63351;BME280;64988;51.058;17.040;2023-03-14T06:05:27;98000.19;;;18.32;38.09
63351;BME280;64988;51.058;17.040;2023-03-14T06:10:59;97998.44;;;17.95;38.44
63351;BME280;64988;51.058;17.040;2023-03-14T06:16:31;98000.13;;;17.96;38.42
63351;BME280;64988;51.058;17.040;2023-03-14T06:22:00;97999.28;;;18.38;38.03
63351;BME280;64988;51.058;17.040;2023-03-14T06:27:29;98013.75;;;19.00;36.58
63351;BME280;64988;51.058;17.040;2023-03-14T06:32:57;98035.06;;;19.57;35.14
63351;BME280;64988;51.058;17.040;2023-03-14T06:38:27;98042.06;;;19.53;34.69
63351;BME280;64988;51.058;17.040;2023-03-14T06:43:56;98049.31;;;19.89;34.30
63351;BME280;64988;51.058;17.040;2023-03-14T06:49:23;98044.25;;;20.27;34.24
63351;BME280;64988;51.058;17.040;2023-03-14T06:54:53;98054.94;;;20.17;34.30
63351;BME280;64988;51.058;17.040;2023-03-14T07:00:22;98056.25;;;20.15;33.94
63351;BME280;64988;51.058;17.040;2023-03-14T07:05:54;98037.81;;;20.22;33.95
63351;BME280;64988;51.058;17.040;2023-03-14T07:11:22;98045.94;;;20.40;34.14
63351;BME280;64988;51.058;17.040;2023-03-14T07:16:49;98062.22;;;20.12;34.34
63351;BME280;64988;51.058;17.040;2023-03-14T07:22:16;98080.16;;;20.08;34.42
63351;BME280;64988;51.058;17.040;2023-03-14T07:27:44;98066.78;;;19.47;35.42
63351;BME280;64988;51.058;17.040;2023-03-14T07:33:15;98070.91;;;19.67;35.10
63351;BME280;64988;51.058;17.040;2023-03-14T07:38:42;98070.00;;;19.55;35.08
63351;BME280;64988;51.058;17.040;2023-03-14T07:44:32;98046.34;;;19.31;36.07
63351;BME280;64988;51.058;17.040;2023-03-14T07:50:00;98045.63;;;18.87;37.07
63351;BME280;64988;51.058;17.040;2023-03-14T07:55:27;98044.44;;;18.41;37.72
63351;BME280;64988;51.058;17.040;2023-03-14T08:00:54;98054.44;;;18.53;37.78
63351;BME280;64988;51.058;17.040;2023-03-14T08:06:22;98034.53;;;17.97;39.27
63351;BME280;64988;51.058;17.040;2023-03-14T08:11:50;98032.53;;;18.10;39.34
63351;BME280;64988;51.058;17.040;2023-03-14T08:17:17;98013.03;;;18.07;40.10
63351;BME280;64988;51.058;17.040;2023-03-14T08:22:44;98053.22;;;18.43;39.63
63351;BME280;64988;51.058;17.040;2023-03-14T08:28:12;98080.38;;;18.13;40.48
63351;BME280;64988;51.058;17.040;2023-03-14T08:33:39;98074.38;;;18.04;40.91
63351;BME280;64988;51.058;17.040;2023-03-14T08:39:07;98087.97;;;18.11;40.70
63351;BME280;64988;51.058;17.040;2023-03-14T08:44:35;98093.47;;;18.04;41.38
63351;BME280;64988;51.058;17.040;2023-03-14T08:50:03;98111.81;;;17.97;41.38
63351;BME280;64988;51.058;17.040;2023-03-14T08:55:30;98104.19;;;18.06;40.77
63351;BME280;64988;51.058;17.040;2023-03-14T09:00:58;98107.06;;;18.35;39.20
63351;BME280;64988;51.058;17.040;2023-03-14T09:06:26;98112.53;;;18.85;38.38
63351;BME280;64988;51.058;17.040;2023-03-14T09:11:53;98096.41;;;18.34;38.90
63351;BME280;64988;51.058;17.040;2023-03-14T09:17:21;98110.50;;;18.56;38.62
63351;BME280;64988;51.058;17.040;2023-03-14T09:22:49;98107.19;;;18.72;37.87
63351;BME280;64988;51.058;17.040;2023-03-14T09:28:16;98106.06;;;19.34;37.27
63351;BME280;64988;51.058;17.040;2023-03-14T09:33:44;98123.16;;;19.11;37.82
63351;BME280;64988;51.058;17.040;2023-03-14T09:39:11;98142.72;;;19.51;36.96
63351;BME280;64988;51.058;17.040;2023-03-14T09:44:46;98152.94;;;18.83;38.32
63351;BME280;64988;51.058;17.040;2023-03-14T09:50:19;98156.06;;;19.23;37.80
63351;BME280;64988;51.058;17.040;2023-03-14T09:55:49;98159.16;;;19.26;38.09
63351;BME280;64988;51.058;17.040;2023-03-14T10:01:20;98159.09;;;19.33;38.70
63351;BME280;64988;51.058;17.040;2023-03-14T10:06:51;98150.06;;;19.14;39.16
63351;BME280;64988;51.058;17.040;2023-03-14T10:12:19;98145.66;;;19.31;39.33
63351;BME280;64988;51.058;17.040;2023-03-14T10:17:48;98155.75;;;19.31;39.95
63351;BME280;64988;51.058;17.040;2023-03-14T10:28:46;98146.56;;;19.62;39.10
63351;BME280;64988;51.058;17.040;2023-03-14T10:34:28;98135.53;;;20.10;38.04
63351;BME280;64988;51.058;17.040;2023-03-14T10:40:02;98130.31;;;20.61;37.29
63351;BME280;64988;51.058;17.040;2023-03-14T10:45:38;98127.31;;;20.98;37.30
63351;BME280;64988;51.058;17.040;2023-03-14T10:51:19;98127.00;;;21.57;36.70
63351;BME280;64988;51.058;17.040;2023-03-14T10:56:57;98127.16;;;22.07;35.58
63351;BME280;64988;51.058;17.040;2023-03-14T11:08:37;98115.03;;;23.41;32.87
63351;BME280;64988;51.058;17.040;2023-03-14T11:14:27;98112.06;;;23.26;33.22
63351;BME280;64988;51.058;17.040;2023-03-14T11:20:33;98091.81;;;23.37;33.15
63351;BME280;64988;51.058;17.040;2023-03-14T11:31:46;98084.31;;;24.62;30.92
63351;BME280;64988;51.058;17.040;2023-03-14T11:37:25;98077.66;;;24.26;31.40
63351;BME280;64988;51.058;17.040;2023-03-14T11:43:00;98071.69;;;23.37;32.34
63351;BME280;64988;51.058;17.040;2023-03-14T11:48:49;98082.78;;;23.64;32.14
63351;BME280;64988;51.058;17.040;2023-03-14T11:54:46;98080.66;;;23.71;33.07
63351;BME280;64988;51.058;17.040;2023-03-14T12:00:21;98080.16;;;23.30;33.53
63351;BME280;64988;51.058;17.040;2023-03-14T12:05:59;98085.53;;;21.98;35.91
63351;BME280;64988;51.058;17.040;2023-03-14T12:11:35;98079.50;;;21.17;37.57
63351;BME280;64988;51.058;17.040;2023-03-14T12:23:02;98051.97;;;21.12;38.13
63351;BME280;64988;51.058;17.040;2023-03-14T12:28:32;98056.66;;;20.76;38.14
63351;BME280;64988;51.058;17.040;2023-03-14T12:51:05;98053.25;;;20.16;39.88
63351;BME280;64988;51.058;17.040;2023-03-14T13:02:38;98040.94;;;19.84;41.69
63351;BME280;64988;51.058;17.040;2023-03-14T13:08:09;98031.81;;;20.13;41.15
63351;BME280;64988;51.058;17.040;2023-03-14T13:13:41;98042.34;;;20.39;40.27
63351;BME280;64988;51.058;17.040;2023-03-14T13:19:40;98048.38;;;20.07;40.90
63351;BME280;64988;51.058;17.040;2023-03-14T13:25:10;98036.41;;;19.78;41.88
63351;BME280;64988;51.058;17.040;2023-03-14T13:30:43;98033.13;;;19.99;42.06
63351;BME280;64988;51.058;17.040;2023-03-14T13:36:11;98025.56;;;20.36;41.58
63351;BME280;64988;51.058;17.040;2023-03-14T13:41:40;98028.06;;;20.49;40.56
63351;BME280;64988;51.058;17.040;2023-03-14T13:47:18;98029.94;;;20.02;41.25
63351;BME280;64988;51.058;17.040;2023-03-14T13:52:46;98018.94;;;19.79;41.70
63351;BME280;64988;51.058;17.040;2023-03-14T13:58:28;98034.03;;;19.81;41.69
63351;BME280;64988;51.058;17.040;2023-03-14T14:03:58;98033.09;;;19.76;41.77
63351;BME280;64988;51.058;17.040;2023-03-14T14:09:35;98029.66;;;19.80;41.33
63351;BME280;64988;51.058;17.040;2023-03-14T14:15:17;98026.94;;;20.04;41.16
63351;BME280;64988;51.058;17.040;2023-03-14T14:20:47;98028.59;;;19.93;41.02
63351;BME280;64988;51.058;17.040;2023-03-14T14:26:17;98025.19;;;20.09;40.95
63351;BME280;64988;51.058;17.040;2023-03-14T14:31:46;98025.41;;;19.96;41.03
63351;BME280;64988;51.058;17.040;2023-03-14T14:37:34;98026.41;;;20.48;39.93
63351;BME280;64988;51.058;17.040;2023-03-14T14:43:03;98028.34;;;20.87;39.26
63351;BME280;64988;51.058;17.040;2023-03-14T14:48:37;98013.53;;;20.60;39.54
63351;BME280;64988;51.058;17.040;2023-03-14T14:54:14;98017.38;;;21.11;38.58
63351;BME280;64988;51.058;17.040;2023-03-14T14:59:43;98015.09;;;21.48;37.76
63351;BME280;64988;51.058;17.040;2023-03-14T15:05:25;98017.38;;;21.39;37.54
63351;BME280;64988;51.058;17.040;2023-03-14T15:10:54;98011.06;;;21.83;36.73
63351;BME280;64988;51.058;17.040;2023-03-14T15:16:27;98005.34;;;22.52;35.62
63351;BME280;64988;51.058;17.040;2023-03-14T15:21:57;98001.91;;;22.44;35.95
63351;BME280;64988;51.058;17.040;2023-03-14T15:27:25;97998.97;;;22.13;36.50
63351;BME280;64988;51.058;17.040;2023-03-14T15:32:56;97996.72;;;21.93;36.90
63351;BME280;64988;51.058;17.040;2023-03-14T15:38:25;97991.63;;;22.18;37.40
63351;BME280;64988;51.058;17.040;2023-03-14T15:43:53;97984.22;;;22.19;37.28
63351;BME280;64988;51.058;17.040;2023-03-14T15:49:21;97984.09;;;22.47;36.00
63351;BME280;64988;51.058;17.040;2023-03-14T15:54:49;97984.38;;;21.95;36.57
63351;BME280;64988;51.058;17.040;2023-03-14T16:00:19;97989.09;;;21.83;35.63
63351;BME280;64988;51.058;17.040;2023-03-14T16:05:48;98000.31;;;21.82;35.54
63351;BME280;64988;51.058;17.040;2023-03-14T16:11:17;97999.50;;;21.36;36.13
63351;BME280;64988;51.058;17.040;2023-03-14T16:16:48;98006.28;;;21.06;35.97
63351;BME280;64988;51.058;17.040;2023-03-14T16:22:16;98008.16;;;21.17;35.54
63351;BME280;64988;51.058;17.040;2023-03-14T16:27:45;98004.03;;;21.03;35.92
63351;BME280;64988;51.058;17.040;2023-03-14T16:33:37;98008.84;;;20.84;36.27
63351;BME280;64988;51.058;17.040;2023-03-14T16:39:07;98009.91;;;20.71;36.26
63351;BME280;64988;51.058;17.040;2023-03-14T16:44:39;98005.91;;;20.27;37.25
63351;BME280;64988;51.058;17.040;2023-03-14T16:50:08;98010.50;;;20.04;37.84
63351;BME280;64988;51.058;17.040;2023-03-14T16:55:40;98023.91;;;19.70;38.94
63351;BME280;64988;51.058;17.040;2023-03-14T17:01:10;98027.41;;;19.48;39.83
63351;BME280;64988;51.058;17.040;2023-03-14T17:06:40;98046.22;;;18.71;41.36
63351;BME280;64988;51.058;17.040;2023-03-14T17:12:14;98044.03;;;18.19;42.98
63351;BME280;64988;51.058;17.040;2023-03-14T17:17:42;98052.94;;;17.83;43.75
63351;BME280;64988;51.058;17.040;2023-03-14T17:23:12;98061.91;;;17.52;44.35
63351;BME280;64988;51.058;17.040;2023-03-14T17:28:44;98070.44;;;17.31;45.12
63351;BME280;64988;51.058;17.040;2023-03-14T17:34:12;98085.34;;;17.28;45.14
63351;BME280;64988;51.058;17.040;2023-03-14T17:39:39;98083.16;;;16.99;46.26
63351;BME280;64988;51.058;17.040;2023-03-14T17:45:08;98092.84;;;16.89;46.53
63351;BME280;64988;51.058;17.040;2023-03-14T17:50:36;98087.56;;;16.94;46.03
63351;BME280;64988;51.058;17.040;2023-03-14T17:56:06;98093.03;;;16.87;46.15
63351;BME280;64988;51.058;17.040;2023-03-14T18:01:34;98103.81;;;17.20;45.73
63351;BME280;64988;51.058;17.040;2023-03-14T18:07:03;98106.63;;;16.94;46.24
63351;BME280;64988;51.058;17.040;2023-03-14T18:12:32;98106.97;;;17.17;45.22
63351;BME280;64988;51.058;17.040;2023-03-14T18:18:00;98120.09;;;16.89;47.74
63351;BME280;64988;51.058;17.040;2023-03-14T18:23:29;98109.66;;;16.59;46.65
63351;BME280;64988;51.058;17.040;2023-03-14T18:28:57;98106.72;;;16.48;47.33
63351;BME280;64988;51.058;17.040;2023-03-14T18:34:24;98101.06;;;16.10;48.08
63351;BME280;64988;51.058;17.040;2023-03-14T18:39:53;98099.81;;;16.06;48.58
63351;BME280;64988;51.058;17.040;2023-03-14T18:45:21;98087.28;;;16.05;48.22
63351;BME280;64988;51.058;17.040;2023-03-14T18:50:50;98094.78;;;16.16;47.73
63351;BME280;64988;51.058;17.040;2023-03-14T18:56:17;98097.31;;;16.17;47.42
63351;BME280;64988;51.058;17.040;2023-03-14T19:01:44;98099.84;;;15.86;48.68
63351;BME280;64988;51.058;17.040;2023-03-14T19:07:14;98108.22;;;16.11;47.92
63351;BME280;64988;51.058;17.040;2023-03-14T19:12:44;98113.84;;;16.09;48.02
63351;BME280;64988;51.058;17.040;2023-03-14T19:18:14;98129.56;;;16.66;47.20
63351;BME280;64988;51.058;17.040;2023-03-14T19:23:45;98125.16;;;16.72;46.99
63351;BME280;64988;51.058;17.040;2023-03-14T19:29:20;98129.13;;;16.76;46.95
63351;BME280;64988;51.058;17.040;2023-03-14T19:34:50;98138.13;;;16.90;46.84
63351;BME280;64988;51.058;17.040;2023-03-14T19:40:18;98156.09;;;17.04;46.81
63351;BME280;64988;51.058;17.040;2023-03-14T19:45:45;98184.91;;;17.44;46.01
63351;BME280;64988;51.058;17.040;2023-03-14T19:51:14;98207.22;;;17.79;45.84
63351;BME280;64988;51.058;17.040;2023-03-14T19:56:42;98335.66;;;16.40;50.56
